createdAt,value
2023-01-01T00:00:44.630Z,15.13
2023-01-01T00:05:46.675Z,15.03
2023-01-01T00:10:48.530Z,14.96
2023-01-01T00:15:50.277Z,14.98
2023-01-01T00:20:52.056Z,15.00
2023-01-01T00:25:53.814Z,15.02
2023-01-01T00:30:55.607Z,15.07
2023-01-01T00:35:57.375Z,15.16
2023-01-01T00:40:59.240Z,15.15
2023-01-01T00:46:01.516Z,15.24
2023-01-01T00:51:04.029Z,15.16
2023-01-01T00:56:06.371Z,15.11
2023-01-01T01:01:08.297Z,15.04
2023-01-01T01:06:12.975Z,15.00
2023-01-01T01:11:17.898Z,14.82
2023-01-01T01:16:32.064Z,14.88
2023-01-01T01:21:34.952Z,14.94
2023-01-01T01:26:36.944Z,14.83
2023-01-01T01:31:38.782Z,14.80
2023-01-01T01:36:40.568Z,14.80
2023-01-01T01:41:42.378Z,14.88
2023-01-01T01:46:45.537Z,14.70
2023-01-01T01:51:47.995Z,14.64
2023-01-01T01:56:54.911Z,14.59
2023-01-01T02:01:57.605Z,14.54
2023-01-01T02:07:00.119Z,14.56
2023-01-01T02:12:01.918Z,14.48
2023-01-01T02:17:22.773Z,14.45
2023-01-01T02:22:36.688Z,14.40
2023-01-01T02:28:02.614Z,14.41
2023-01-01T02:33:09.281Z,14.37
2023-01-01T02:38:11.103Z,14.25
2023-01-01T02:43:13.185Z,14.07
2023-01-01T02:48:36.855Z,14.10
2023-01-01T02:54:01.110Z,14.08
2023-01-01T02:59:30.477Z,14.02
2023-01-01T03:04:59.864Z,13.91
2023-01-01T03:10:10.842Z,13.77
2023-01-01T03:15:25.155Z,13.67
2023-01-01T03:20:31.196Z,13.55
2023-01-01T03:25:39.060Z,13.52
2023-01-01T03:30:44.135Z,13.44
2023-01-01T03:35:50.803Z,13.67
2023-01-01T03:41:00.948Z,13.74
2023-01-01T03:46:05.119Z,13.68
2023-01-01T03:51:18.046Z,13.59
2023-01-01T03:56:45.701Z,13.37
2023-01-01T04:01:53.425Z,13.45
2023-01-01T04:06:57.623Z,13.45
2023-01-01T04:12:03.980Z,13.45
2023-01-01T04:17:07.400Z,13.23
2023-01-01T04:22:09.293Z,13.16
2023-01-01T04:27:11.072Z,13.21
2023-01-01T04:32:12.893Z,13.31
2023-01-01T04:37:15.679Z,13.25
2023-01-01T04:42:17.452Z,13.19
2023-01-01T04:47:19.240Z,13.08
2023-01-01T04:52:21.963Z,12.86
2023-01-01T04:57:23.764Z,12.58
2023-01-01T05:02:26.333Z,12.53
2023-01-01T05:07:28.248Z,12.40
2023-01-01T05:12:30.375Z,12.54
2023-01-01T05:17:32.164Z,12.49
2023-01-01T05:22:33.984Z,12.80
2023-01-01T05:27:35.791Z,13.09
2023-01-01T05:32:38.142Z,13.16
2023-01-01T05:37:40.014Z,13.08
2023-01-01T05:42:42.059Z,13.35
2023-01-01T05:47:43.833Z,13.32
2023-01-01T05:52:45.638Z,13.15
2023-01-01T05:57:47.440Z,13.02
2023-01-01T06:02:51.210Z,12.87
2023-01-01T06:07:53.086Z,12.91
2023-01-01T06:13:00.737Z,13.06
2023-01-01T06:18:02.536Z,13.05
2023-01-01T06:23:04.372Z,13.08
2023-01-01T06:28:09.053Z,13.13
2023-01-01T06:33:10.843Z,13.13
2023-01-01T06:38:12.672Z,13.24
2023-01-01T06:43:14.459Z,13.33
2023-01-01T06:48:16.251Z,13.33
2023-01-01T06:53:18.217Z,13.40
2023-01-01T06:58:20.043Z,13.44
2023-01-01T07:03:21.875Z,13.46
2023-01-01T07:08:23.901Z,13.49
2023-01-01T07:13:27.262Z,13.43
2023-01-01T07:18:29.125Z,13.46
2023-01-01T07:23:33.983Z,13.56
2023-01-01T07:28:35.788Z,13.54
2023-01-01T07:33:37.631Z,13.57
2023-01-01T07:38:39.464Z,13.43
2023-01-01T07:43:41.414Z,13.41
2023-01-01T07:48:43.199Z,13.50
2023-01-01T07:53:45.016Z,13.47
2023-01-01T07:58:46.811Z,13.39
2023-01-01T08:03:53.005Z,13.43
2023-01-01T08:08:54.804Z,13.40
2023-01-01T08:13:56.623Z,13.37
2023-01-01T08:18:58.467Z,13.40
2023-01-01T08:24:00.276Z,13.41
2023-01-01T08:29:04.834Z,13.50
2023-01-01T08:34:06.784Z,13.59
2023-01-01T08:39:09.394Z,13.60
2023-01-01T08:44:11.215Z,13.66
2023-01-01T08:49:13.208Z,13.65
2023-01-01T08:54:15.028Z,13.68
2023-01-01T08:59:16.857Z,13.71
2023-01-01T09:04:18.681Z,13.75
2023-01-01T09:09:24.322Z,13.74
2023-01-01T09:14:29.251Z,13.83
2023-01-01T09:19:31.050Z,13.84
2023-01-01T09:24:32.895Z,14.01
2023-01-01T09:29:34.783Z,14.17
2023-01-01T09:34:36.796Z,14.26
2023-01-01T09:39:38.592Z,14.47
2023-01-01T09:45:02.575Z,14.65
2023-01-01T09:50:20.450Z,14.81
2023-01-01T09:55:29.461Z,14.92
2023-01-01T10:00:34.866Z,14.98
2023-01-01T10:05:57.073Z,15.05
2023-01-01T10:11:17.365Z,15.09
2023-01-01T10:16:25.505Z,15.07
2023-01-01T10:21:34.004Z,15.02
2023-01-01T10:26:37.965Z,15.00
2023-01-01T10:31:42.833Z,15.06
2023-01-01T10:36:45.069Z,15.22
2023-01-01T10:41:48.183Z,15.38
2023-01-01T10:46:56.532Z,15.52
2023-01-01T10:51:59.457Z,15.58
2023-01-01T10:57:15.249Z,16.18
2023-01-01T11:14:59.458Z,15.78
2023-01-01T11:20:03.236Z,15.40
2023-01-01T11:25:17.804Z,15.71
2023-01-01T11:30:24.231Z,15.85
2023-01-01T11:35:29.411Z,15.94
2023-01-01T11:40:39.809Z,15.86
2023-01-01T11:45:43.047Z,15.76
2023-01-01T11:51:14.545Z,15.50
2023-01-01T11:56:22.291Z,15.51
2023-01-01T12:01:53.873Z,15.59
2023-01-01T12:07:23.164Z,15.55
2023-01-01T12:12:35.810Z,15.46
2023-01-01T12:17:43.720Z,15.45
2023-01-01T12:22:45.484Z,15.34
2023-01-01T12:28:12.095Z,15.47
2023-01-01T12:33:44.816Z,15.60
2023-01-01T12:39:23.685Z,15.82
2023-01-01T12:44:54.950Z,15.92
2023-01-01T12:50:10.640Z,15.84
2023-01-01T12:55:36.876Z,15.68
2023-01-01T13:00:42.421Z,15.52
2023-01-01T13:05:48.741Z,15.41
2023-01-01T13:10:56.991Z,15.40
2023-01-01T13:15:58.974Z,15.43
2023-01-01T13:21:08.858Z,15.47
2023-01-01T13:26:22.981Z,15.48
2023-01-01T13:31:48.025Z,15.43
2023-01-01T13:36:49.866Z,15.29
2023-01-01T13:41:51.661Z,15.16
2023-01-01T13:47:14.086Z,14.97
2023-01-01T13:52:34.625Z,14.94
2023-01-01T13:58:18.009Z,14.82
2023-01-01T14:03:21.304Z,14.78
2023-01-01T14:08:33.717Z,14.73
2023-01-01T14:13:41.646Z,14.62
2023-01-01T14:18:53.631Z,14.50
2023-01-01T14:23:57.407Z,14.50
2023-01-01T14:29:01.858Z,14.41
2023-01-01T14:34:24.355Z,14.34
2023-01-01T14:39:31.718Z,14.25
2023-01-01T14:44:38.094Z,14.24
2023-01-01T14:49:39.936Z,14.18
2023-01-01T14:54:44.453Z,14.07
2023-01-01T14:59:49.388Z,13.96
2023-01-01T15:04:51.608Z,13.86
2023-01-01T15:09:55.398Z,13.88
2023-01-01T15:14:58.360Z,13.81
2023-01-01T15:20:01.495Z,13.76
2023-01-01T15:25:03.950Z,13.69
2023-01-01T15:30:13.612Z,13.68
2023-01-01T15:35:31.124Z,13.61
2023-01-01T15:40:36.063Z,13.54
2023-01-01T15:45:39.905Z,13.25
2023-01-01T15:50:56.712Z,13.42
2023-01-01T15:56:05.159Z,13.46
2023-01-01T16:01:14.369Z,13.39
2023-01-01T16:06:18.093Z,13.32
2023-01-01T16:11:19.935Z,13.25
2023-01-01T16:16:29.038Z,13.08
2023-01-01T16:21:35.719Z,12.95
2023-01-01T16:26:37.519Z,13.05
2023-01-01T16:31:40.352Z,13.00
2023-01-01T16:36:43.457Z,13.03
2023-01-01T16:41:45.432Z,13.02
2023-01-01T16:46:47.519Z,12.93
2023-01-01T16:51:50.664Z,12.92
2023-01-01T16:56:52.480Z,12.86
2023-01-01T17:01:54.384Z,12.89
2023-01-01T17:06:56.215Z,12.90
2023-01-01T17:11:58.027Z,12.89
2023-01-01T17:16:59.873Z,12.87
2023-01-01T17:22:01.805Z,12.67
2023-01-01T17:27:03.761Z,12.59
2023-01-01T17:32:06.006Z,12.49
2023-01-01T17:37:07.892Z,12.37
2023-01-01T17:42:09.771Z,12.30
2023-01-01T17:47:11.732Z,12.37
2023-01-01T17:52:13.564Z,12.42
2023-01-01T17:57:15.795Z,12.40
2023-01-01T18:02:17.793Z,12.42
2023-01-01T18:07:19.847Z,12.23
2023-01-01T18:12:21.753Z,12.03
2023-01-01T18:17:23.584Z,12.07
2023-01-01T18:22:25.366Z,12.14
2023-01-01T18:27:27.206Z,12.06
2023-01-01T18:32:28.988Z,11.90
2023-01-01T18:37:30.759Z,11.73
2023-01-01T18:42:54.419Z,11.56
2023-01-01T18:47:56.348Z,11.31
2023-01-01T18:53:20.410Z,11.18
2023-01-01T19:10:51.494Z,10.90
2023-01-01T19:16:14.112Z,10.82
2023-01-01T19:21:23.112Z,10.73
2023-01-01T19:26:34.744Z,10.73
2023-01-01T19:31:36.572Z,10.54
2023-01-01T19:36:38.973Z,10.49
2023-01-01T19:41:41.240Z,10.36
2023-01-01T19:46:43.044Z,10.28
2023-01-01T19:51:44.869Z,10.21
2023-01-01T19:56:47.561Z,10.06
2023-01-01T20:02:09.782Z,9.98
2023-01-01T20:07:11.159Z,9.96
2023-01-01T20:12:13.221Z,9.88
2023-01-01T20:17:17.965Z,9.78
2023-01-01T20:22:22.046Z,9.58
2023-01-01T20:27:26.973Z,9.56
2023-01-01T20:32:29.175Z,9.53
2023-01-01T20:37:36.799Z,9.56
2023-01-01T20:42:38.660Z,9.49
2023-01-01T20:47:41.046Z,9.40
2023-01-01T20:52:42.820Z,9.36
2023-01-01T20:57:44.569Z,9.31
2023-01-01T21:02:46.548Z,9.25
2023-01-01T21:07:48.357Z,9.18
2023-01-01T21:12:50.137Z,9.19
2023-01-01T21:17:51.920Z,9.05
2023-01-01T21:22:57.392Z,9.01
2023-01-01T21:27:59.172Z,8.96
2023-01-01T21:33:01.773Z,8.95
2023-01-01T21:38:18.991Z,8.86
2023-01-01T21:43:40.288Z,8.58
2023-01-01T21:48:48.490Z,8.42
2023-01-01T21:53:51.160Z,8.40
2023-01-01T21:59:11.918Z,8.49
2023-01-01T22:04:25.348Z,8.41
2023-01-01T22:09:32.658Z,8.10
2023-01-01T22:14:39.121Z,7.92
2023-01-01T22:19:42.475Z,7.90
2023-01-01T22:24:50.486Z,7.74
2023-01-01T22:29:52.680Z,7.64
2023-01-01T22:35:05.725Z,7.70
2023-01-01T22:40:18.010Z,7.82
2023-01-01T22:45:19.947Z,7.89
2023-01-01T22:50:23.515Z,7.87
2023-01-01T22:55:25.353Z,7.95
2023-01-01T23:00:27.119Z,8.02
2023-01-01T23:05:29.152Z,8.13
2023-01-01T23:10:32.032Z,8.26
2023-01-01T23:15:55.744Z,8.26
2023-01-01T23:20:58.611Z,8.33
2023-01-01T23:26:01.423Z,8.42
2023-01-01T23:31:05.662Z,8.60
2023-01-01T23:36:09.459Z,8.61
2023-01-01T23:41:11.258Z,8.83
2023-01-01T23:46:18.015Z,8.80
2023-01-01T23:51:20.305Z,8.74
2023-01-01T23:56:22.844Z,8.82
